createdAt,value
2023-12-24T00:01:16.914Z,99790.28
2023-12-24T00:03:43.765Z,99802.16
2023-12-24T00:06:10.536Z,99769.09
2023-12-24T00:08:37.900Z,99830.56
2023-12-24T00:11:06.471Z,99825.13
2023-12-24T00:13:33.166Z,99816.31
2023-12-24T00:15:59.785Z,99808.69
2023-12-24T00:18:26.446Z,99804.75
2023-12-24T00:20:52.983Z,99806.69
2023-12-24T00:23:19.621Z,99818.84
2023-12-24T00:25:46.482Z,99824.97
2023-12-24T00:28:13.113Z,99831.94
2023-12-24T00:30:39.774Z,99815.22
2023-12-24T00:33:06.404Z,99781.31
2023-12-24T00:35:35.137Z,99805.28
2023-12-24T00:38:01.756Z,99754.56
2023-12-24T00:40:28.281Z,99798.72
2023-12-24T00:42:54.978Z,99801.38
2023-12-24T00:45:21.724Z,99785.06
2023-12-24T00:47:48.779Z,99767.09
2023-12-24T00:50:15.551Z,99760.13
2023-12-24T00:52:42.021Z,99763.84
2023-12-24T00:55:08.778Z,99799.81
2023-12-24T00:57:37.468Z,99758.25
2023-12-24T01:00:07.826Z,99743.06
2023-12-24T01:02:34.632Z,99783.13
2023-12-24T01:05:01.339Z,99745.53
2023-12-24T01:07:27.974Z,99783.41
2023-12-24T01:09:54.438Z,99766.09
2023-12-24T01:12:20.919Z,99778.34
2023-12-24T01:14:47.434Z,99712.06
2023-12-24T01:17:14.910Z,99768.56
2023-12-24T01:19:41.872Z,99775.78
2023-12-24T01:22:08.346Z,99783.47
2023-12-24T01:24:34.784Z,99772.84
2023-12-24T01:27:01.241Z,99772.25
2023-12-24T01:29:27.980Z,99767.78
2023-12-24T01:31:54.592Z,99708.16
2023-12-24T01:34:21.128Z,99768.56
2023-12-24T01:36:47.604Z,99765.31
2023-12-24T01:39:14.555Z,99769.88
2023-12-24T01:41:41.083Z,99772.63
2023-12-24T01:44:07.620Z,99758.97
2023-12-24T01:46:34.342Z,99740.91
2023-12-24T01:49:03.955Z,99720.19
2023-12-24T01:51:32.782Z,99739.84
2023-12-24T01:54:03.005Z,99735.47
2023-12-24T01:56:31.966Z,99734.13
2023-12-24T01:59:02.646Z,99731.06
2023-12-24T02:01:29.414Z,99663.28
2023-12-24T02:03:56.559Z,99723.38
2023-12-24T02:06:25.395Z,99720.09
2023-12-24T02:08:52.050Z,99725.50
2023-12-24T02:11:18.819Z,99708.16
2023-12-24T02:13:45.676Z,99709.53
2023-12-24T02:16:15.971Z,99727.84
2023-12-24T02:18:42.987Z,99700.56
2023-12-24T02:21:09.706Z,99713.25
2023-12-24T02:23:36.305Z,99704.59
2023-12-24T02:26:12.565Z,99686.25
2023-12-24T02:28:43.576Z,99703.91
2023-12-24T02:31:14.010Z,99694.53
2023-12-24T02:33:42.592Z,99677.56
2023-12-24T02:36:11.164Z,99655.59
2023-12-24T02:38:37.889Z,99693.22
2023-12-24T02:41:05.408Z,99698.53
2023-12-24T02:43:32.845Z,99651.56
2023-12-24T02:46:02.874Z,99690.34
2023-12-24T02:48:29.432Z,99689.34
2023-12-24T02:50:55.950Z,99693.69
2023-12-24T02:53:22.455Z,99692.50
2023-12-24T02:55:48.953Z,99666.53
2023-12-24T02:58:17.078Z,99688.31
2023-12-24T03:00:43.702Z,99636.53
2023-12-24T03:03:10.189Z,99681.13
2023-12-24T03:05:36.748Z,99682.28
2023-12-24T03:08:03.464Z,99682.97
2023-12-24T03:10:29.962Z,99677.28
2023-12-24T03:12:56.443Z,99667.28
2023-12-24T03:15:22.909Z,99669.16
2023-12-24T03:17:55.792Z,99674.50
2023-12-24T03:20:22.416Z,99634.84
2023-12-24T03:22:49.016Z,99669.63
2023-12-24T03:25:15.619Z,99671.63
2023-12-24T03:27:42.095Z,99658.28
2023-12-24T03:30:09.143Z,99665.94
2023-12-24T03:32:35.762Z,99668.59
2023-12-24T03:35:02.416Z,99658.75
2023-12-24T03:37:29.291Z,99654.09
2023-12-24T03:39:55.930Z,99654.78
2023-12-24T03:42:22.385Z,99652.22
2023-12-24T03:44:48.904Z,99660.22
2023-12-24T03:47:15.430Z,99650.75
2023-12-24T03:49:41.972Z,99648.25
2023-12-24T03:52:08.447Z,99652.22
2023-12-24T03:54:38.360Z,99631.25
2023-12-24T03:57:05.081Z,99652.06
2023-12-24T03:59:31.716Z,99644.94
2023-12-24T04:01:58.374Z,99616.97
2023-12-24T04:04:24.949Z,99640.75
2023-12-24T04:06:51.510Z,99637.44
2023-12-24T04:09:18.157Z,99655.22
2023-12-24T04:11:44.709Z,99620.91
2023-12-24T04:14:11.271Z,99644.38
2023-12-24T04:16:37.780Z,99614.34
2023-12-24T04:19:04.439Z,99656.22
2023-12-24T04:21:34.163Z,99643.03
2023-12-24T04:24:01.185Z,99634.88
2023-12-24T04:26:27.732Z,99643.72
2023-12-24T04:28:54.337Z,99643.03
2023-12-24T04:31:20.920Z,99622.88
2023-12-24T04:33:47.429Z,99649.56
2023-12-24T04:36:22.976Z,99627.84
2023-12-24T04:38:49.674Z,99624.53
2023-12-24T04:41:20.184Z,99579.28
2023-12-24T04:43:46.921Z,99622.19
2023-12-24T04:46:13.920Z,99620.03
2023-12-24T04:48:41.207Z,99627.34
2023-12-24T04:51:07.764Z,99622.19
2023-12-24T04:53:34.568Z,99618.84
2023-12-24T04:56:01.155Z,99628.34
2023-12-24T04:58:27.639Z,99614.69
2023-12-24T05:00:54.117Z,99601.00
2023-12-24T05:03:20.748Z,99622.66
2023-12-24T05:05:47.340Z,99619.84
2023-12-24T05:08:13.990Z,99614.50
2023-12-24T05:10:40.645Z,99612.81
2023-12-24T05:13:07.236Z,99620.50
2023-12-24T05:15:33.758Z,99615.00
2023-12-24T05:18:00.375Z,99610.31
2023-12-24T05:20:26.979Z,99618.34
2023-12-24T05:22:53.684Z,99622.66
2023-12-24T05:25:21.720Z,99613.66
2023-12-24T05:27:48.231Z,99618.81
2023-12-24T05:30:14.958Z,99604.31
2023-12-24T05:32:41.663Z,99612.47
2023-12-24T05:35:08.342Z,99608.16
2023-12-24T05:37:34.778Z,99599.97
2023-12-24T05:40:01.596Z,99603.25
2023-12-24T05:42:28.081Z,99600.97
2023-12-24T05:44:54.606Z,99603.63
2023-12-24T05:47:21.141Z,99582.81
2023-12-24T05:49:47.710Z,99585.97
2023-12-24T05:52:14.259Z,99587.44
2023-12-24T05:54:40.734Z,99588.63
2023-12-24T05:57:07.740Z,99574.13
2023-12-24T05:59:34.221Z,99579.44
2023-12-24T06:02:00.717Z,99581.63
2023-12-24T06:04:27.147Z,99579.06
2023-12-24T06:06:53.625Z,99580.91
2023-12-24T06:09:20.116Z,99576.56
2023-12-24T06:11:46.855Z,99568.56
2023-12-24T06:14:13.367Z,99538.84
2023-12-24T06:16:39.809Z,99574.63
2023-12-24T06:19:06.810Z,99572.06
2023-12-24T06:21:33.526Z,99567.94
2023-12-24T06:23:59.952Z,99563.09
2023-12-24T06:26:26.465Z,99564.78
2023-12-24T06:28:53.026Z,99564.88
2023-12-24T06:31:25.910Z,99565.44
2023-12-24T06:33:52.602Z,99560.28
2023-12-24T06:36:19.433Z,99562.38
2023-12-24T06:38:46.619Z,99572.72
2023-12-24T06:41:13.117Z,99529.34
2023-12-24T06:43:40.053Z,99547.03
2023-12-24T06:46:13.385Z,99537.56
2023-12-24T06:48:40.788Z,99543.69
2023-12-24T06:51:07.526Z,99488.81
2023-12-24T06:53:34.916Z,99523.94
2023-12-24T06:56:01.821Z,99547.69
2023-12-24T06:58:28.277Z,99504.72
2023-12-24T07:00:54.774Z,99538.00
2023-12-24T07:03:21.201Z,99544.19
2023-12-24T07:05:47.788Z,99540.16
2023-12-24T07:08:14.391Z,99539.16
2023-12-24T07:10:40.921Z,99492.28
2023-12-24T07:13:07.390Z,99526.28
2023-12-24T07:15:39.393Z,99517.63
2023-12-24T07:18:06.092Z,99525.09
2023-12-24T07:20:32.762Z,99505.81
2023-12-24T07:23:02.286Z,99518.09
2023-12-24T07:25:29.609Z,99523.25
2023-12-24T07:27:56.078Z,99534.22
2023-12-24T07:30:22.608Z,99532.38
2023-12-24T07:32:49.669Z,99526.22
2023-12-24T07:35:17.673Z,99516.84
2023-12-24T07:37:44.191Z,99530.53
2023-12-24T07:40:11.307Z,99505.59
2023-12-24T07:42:38.562Z,99527.69
2023-12-24T07:45:05.707Z,99518.03
2023-12-24T07:47:32.953Z,99516.00
2023-12-24T07:49:59.629Z,99513.00
2023-12-24T07:52:26.435Z,99513.25
2023-12-24T07:54:53.493Z,99508.41
2023-12-24T07:57:20.446Z,99496.50
2023-12-24T07:59:47.009Z,99511.25
2023-12-24T08:02:13.885Z,99505.06
2023-12-24T08:04:42.085Z,99497.88
2023-12-24T08:07:08.719Z,99509.06
2023-12-24T08:09:35.309Z,99473.47
2023-12-24T08:12:02.086Z,99498.72
2023-12-24T08:14:29.426Z,99481.47
2023-12-24T08:16:55.863Z,99445.22
2023-12-24T08:19:22.528Z,99488.88
2023-12-24T08:21:49.124Z,99498.72
2023-12-24T08:24:15.953Z,99454.72
2023-12-24T08:26:43.208Z,99500.69
2023-12-24T08:29:09.861Z,99505.84
2023-12-24T08:31:36.413Z,99503.19
2023-12-24T08:34:03.950Z,99439.84
2023-12-24T08:36:30.616Z,99457.78
2023-12-24T08:38:57.109Z,99447.84
2023-12-24T08:41:23.759Z,99480.97
2023-12-24T08:43:50.265Z,99494.72
2023-12-24T08:46:17.975Z,99464.00
2023-12-24T08:48:44.512Z,99482.91
2023-12-24T08:51:11.052Z,99483.56
2023-12-24T08:53:37.660Z,99472.78
2023-12-24T08:56:04.621Z,99469.53
2023-12-24T08:58:31.267Z,99478.69
2023-12-24T09:00:57.711Z,99480.00
2023-12-24T09:03:24.206Z,99459.50
2023-12-24T09:05:50.781Z,99478.16
2023-12-24T09:08:17.996Z,99462.44
2023-12-24T09:10:44.605Z,99490.34
2023-12-24T09:13:11.134Z,99457.97
2023-12-24T09:15:37.682Z,99473.94
2023-12-24T09:18:04.920Z,99486.75
2023-12-24T09:20:31.737Z,99487.78
2023-12-24T09:22:58.223Z,99476.91
2023-12-24T09:25:24.698Z,99476.44
2023-12-24T09:27:51.161Z,99490.72
2023-12-24T09:30:17.754Z,99452.81
2023-12-24T09:32:44.701Z,99449.47
2023-12-24T09:35:11.382Z,99486.31
2023-12-24T09:37:38.046Z,99480.13
2023-12-24T09:40:05.104Z,99466.22
2023-12-24T09:42:31.631Z,99482.72
2023-12-24T09:44:58.307Z,99475.19
2023-12-24T09:47:24.902Z,99440.78
2023-12-24T09:49:51.438Z,99482.81
2023-12-24T09:52:17.900Z,99477.47
2023-12-24T09:54:44.765Z,99480.97
2023-12-24T09:57:11.223Z,99465.03
2023-12-24T09:59:38.139Z,99475.44
2023-12-24T10:02:04.996Z,99479.94
2023-12-24T10:04:31.577Z,99453.41
2023-12-24T10:06:59.613Z,99477.19
2023-12-24T10:09:43.047Z,99479.75
2023-12-24T10:12:12.386Z,99463.66
2023-12-24T10:14:40.943Z,99467.22
2023-12-24T10:17:08.684Z,99469.25
2023-12-24T10:19:36.123Z,99463.63
2023-12-24T10:22:10.265Z,99461.78
2023-12-24T10:24:41.992Z,99467.13
2023-12-24T10:27:11.180Z,99440.13
2023-12-24T10:29:40.611Z,99460.56
2023-12-24T10:32:10.956Z,99453.19
2023-12-24T10:34:38.723Z,99382.22
2023-12-24T10:37:19.281Z,99440.47
2023-12-24T10:39:46.442Z,99430.22
2023-12-24T10:42:12.917Z,99434.47
2023-12-24T10:44:40.548Z,99428.38
2023-12-24T10:47:08.962Z,99411.31
2023-12-24T10:49:35.856Z,99422.66
2023-12-24T10:52:02.446Z,99391.31
2023-12-24T10:54:29.126Z,99419.88
2023-12-24T10:57:20.052Z,99429.06
2023-12-24T11:00:08.380Z,99419.59
2023-12-24T11:02:37.351Z,99417.38
2023-12-24T11:05:04.657Z,99425.38
2023-12-24T11:07:34.202Z,99420.13
2023-12-24T11:10:01.775Z,99419.75
2023-12-24T11:12:35.876Z,99385.00
2023-12-24T11:15:08.174Z,99406.09
2023-12-24T11:17:40.665Z,99396.41
2023-12-24T11:20:22.195Z,99382.53
2023-12-24T11:23:10.602Z,99386.22
2023-12-24T11:25:47.479Z,99365.69
2023-12-24T11:28:26.022Z,99374.94
2023-12-24T11:30:52.633Z,99363.59
2023-12-24T11:33:35.202Z,99369.03
2023-12-24T11:36:05.238Z,99369.03
2023-12-24T11:38:34.729Z,99357.31
2023-12-24T11:41:07.989Z,99370.06
2023-12-24T11:43:35.369Z,99364.06
2023-12-24T11:46:02.162Z,99371.53
2023-12-24T11:48:30.230Z,99367.41
2023-12-24T11:51:04.742Z,99366.16
2023-12-24T11:53:35.648Z,99369.25
2023-12-24T11:56:18.901Z,99352.44
2023-12-24T11:58:51.360Z,99367.31
2023-12-24T12:01:23.357Z,99355.97
2023-12-24T12:03:58.856Z,99339.72
2023-12-24T12:06:27.295Z,99328.34
2023-12-24T12:08:54.042Z,99316.38
2023-12-24T12:11:20.940Z,99331.50
2023-12-24T12:13:47.817Z,99289.94
2023-12-24T12:16:14.450Z,99310.50
2023-12-24T12:18:41.058Z,99292.34
2023-12-24T12:21:11.383Z,99291.91
2023-12-24T12:23:39.808Z,99282.19
2023-12-24T12:26:07.315Z,99305.56
2023-12-24T12:28:35.692Z,99293.22
2023-12-24T12:31:02.981Z,99295.09
2023-12-24T12:33:29.841Z,99307.00
2023-12-24T12:35:56.972Z,99303.13
2023-12-24T12:38:24.171Z,99296.53
2023-12-24T12:40:53.438Z,99255.44
2023-12-24T12:43:21.875Z,99290.34
2023-12-24T12:45:52.862Z,99291.44
2023-12-24T12:48:19.967Z,99292.38
2023-12-24T12:50:46.926Z,99286.13
2023-12-24T12:53:22.714Z,99283.00
2023-12-24T12:55:49.227Z,99269.56
2023-12-24T12:58:15.823Z,99293.53
2023-12-24T13:00:42.356Z,99278.94
2023-12-24T13:03:09.494Z,99261.53
2023-12-24T13:05:36.269Z,99277.72
2023-12-24T13:08:14.668Z,99261.66
2023-12-24T13:10:41.575Z,99249.16
2023-12-24T13:13:17.413Z,99274.00
2023-12-24T13:15:44.814Z,99269.56
2023-12-24T13:18:30.722Z,99271.53
2023-12-24T13:21:02.233Z,99276.50
2023-12-24T13:23:29.792Z,99266.56
2023-12-24T13:25:56.688Z,99263.94
2023-12-24T13:28:25.122Z,99242.66
2023-12-24T13:30:52.011Z,99237.16
2023-12-24T13:33:21.899Z,99229.31
2023-12-24T13:35:48.904Z,99247.66
2023-12-24T13:38:20.948Z,99242.75
2023-12-24T13:40:48.145Z,99248.50
2023-12-24T13:43:14.824Z,99237.59
2023-12-24T13:45:41.526Z,99246.91
2023-12-24T13:48:13.335Z,99234.34
2023-12-24T13:50:41.051Z,99224.84
2023-12-24T13:53:18.964Z,99222.59
2023-12-24T13:55:54.157Z,99213.94
2023-12-24T13:58:20.588Z,99229.44
2023-12-24T14:00:47.213Z,99217.69
2023-12-24T14:03:13.813Z,99222.22
2023-12-24T14:05:41.649Z,99222.03
2023-12-24T14:08:08.713Z,99204.88
2023-12-24T14:10:35.578Z,99211.50
2023-12-24T14:13:02.417Z,99217.09
2023-12-24T14:15:28.832Z,99210.91
2023-12-24T14:17:55.477Z,99210.09
2023-12-24T14:20:23.001Z,99200.59
2023-12-24T14:22:49.680Z,99194.03
2023-12-24T14:25:16.308Z,99191.34
2023-12-24T14:27:42.794Z,99187.00
2023-12-24T14:30:09.527Z,99150.28
2023-12-24T14:32:36.153Z,99122.56
2023-12-24T14:35:03.617Z,99163.72
2023-12-24T14:37:30.133Z,99173.47
2023-12-24T14:39:56.584Z,99146.19
2023-12-24T14:42:23.039Z,99166.03
2023-12-24T14:44:50.437Z,99125.16
2023-12-24T14:47:19.710Z,99150.97
2023-12-24T14:49:46.699Z,99165.63
2023-12-24T14:52:14.060Z,99155.31
2023-12-24T14:54:41.351Z,99153.69
2023-12-24T14:57:07.841Z,99153.28
2023-12-24T14:59:34.330Z,99152.22
2023-12-24T15:02:02.297Z,99147.50
2023-12-24T15:04:28.889Z,99144.41
2023-12-24T15:06:57.062Z,99151.81
2023-12-24T15:09:23.609Z,99142.31
2023-12-24T15:11:50.497Z,99126.88
2023-12-24T15:14:17.166Z,99137.19
2023-12-24T15:16:43.725Z,99141.72
2023-12-24T15:19:10.325Z,99138.03
2023-12-24T15:21:36.979Z,99110.16
2023-12-24T15:24:04.346Z,99126.28
2023-12-24T15:26:33.857Z,99141.34
2023-12-24T15:29:01.157Z,99132.88
2023-12-24T15:31:28.823Z,99104.19
2023-12-24T15:33:55.566Z,99125.22
2023-12-24T15:36:22.182Z,99136.13
2023-12-24T15:38:48.792Z,99104.63
2023-12-24T15:41:16.816Z,99112.66
2023-12-24T15:43:46.495Z,99119.22
2023-12-24T15:46:13.514Z,99078.22
2023-12-24T15:48:40.357Z,99103.16
2023-12-24T15:51:07.888Z,99085.66
2023-12-24T15:53:34.469Z,99065.22
2023-12-24T15:56:01.778Z,99079.66
2023-12-24T15:58:28.496Z,99073.28
2023-12-24T16:00:55.089Z,99093.06
2023-12-24T16:03:21.650Z,99096.38
2023-12-24T16:05:48.325Z,99072.25
2023-12-24T16:08:15.692Z,99054.31
2023-12-24T16:10:42.367Z,99071.19
2023-12-24T16:13:08.856Z,99095.75
2023-12-24T16:15:37.270Z,99068.94
2023-12-24T16:18:04.722Z,99087.09
2023-12-24T16:20:31.374Z,99087.50
2023-12-24T16:22:58.051Z,99086.28
2023-12-24T16:25:27.406Z,99072.66
2023-12-24T16:27:53.953Z,99082.97
2023-12-24T16:30:20.938Z,99086.88
2023-12-24T16:32:48.758Z,99071.63
2023-12-24T16:35:15.602Z,99097.19
2023-12-24T16:37:46.177Z,99092.47
2023-12-24T16:40:15.282Z,99070.22
2023-12-24T16:42:47.703Z,99066.28
2023-12-24T16:45:19.213Z,99086.50
2023-12-24T16:47:46.469Z,99083.00
2023-12-24T16:50:13.188Z,99099.25
2023-12-24T16:52:39.943Z,99099.25
2023-12-24T16:55:07.404Z,99075.94
2023-12-24T16:57:36.917Z,99097.84
2023-12-24T17:00:04.841Z,99103.22
2023-12-24T17:02:31.355Z,99098.69
2023-12-24T17:04:57.951Z,99104.63
2023-12-24T17:07:24.543Z,99107.31
2023-12-24T17:09:52.230Z,99117.44
2023-12-24T17:12:19.815Z,99115.75
2023-12-24T17:14:47.465Z,99118.25
2023-12-24T17:17:14.124Z,99125.03
2023-12-24T17:19:40.885Z,99115.78
2023-12-24T17:22:07.396Z,99109.59
2023-12-24T17:24:33.925Z,99128.56
2023-12-24T17:27:00.518Z,99095.97
2023-12-24T17:29:27.548Z,99095.16
2023-12-24T17:31:54.602Z,99118.66
2023-12-24T17:34:22.540Z,99088.16
2023-12-24T17:36:49.116Z,99101.34
2023-12-24T17:39:16.229Z,99099.91
2023-12-24T17:41:43.153Z,99106.72
2023-12-24T17:44:09.810Z,99097.03
2023-12-24T17:46:36.281Z,99106.53
2023-12-24T17:49:03.027Z,99093.94
2023-12-24T17:51:29.632Z,99083.19
2023-12-24T17:53:56.933Z,99092.91
2023-12-24T17:56:23.495Z,99067.94
2023-12-24T17:58:50.102Z,99080.31
2023-12-24T18:01:16.540Z,99086.28
2023-12-24T18:03:43.139Z,99084.88
2023-12-24T18:06:12.539Z,99105.50
2023-12-24T18:08:39.110Z,99075.16
2023-12-24T18:11:05.735Z,99105.88
2023-12-24T18:13:32.775Z,99112.50
2023-12-24T18:15:59.334Z,99118.28
2023-12-24T18:18:27.086Z,99106.09
2023-12-24T18:20:53.807Z,99135.81
2023-12-24T18:23:20.381Z,99149.25
2023-12-24T18:25:46.823Z,99174.78
2023-12-24T18:28:13.658Z,99174.81
2023-12-24T18:30:40.178Z,99181.38
2023-12-24T18:33:07.268Z,99183.41
2023-12-24T18:35:35.033Z,99193.91
2023-12-24T18:38:04.757Z,99179.84
2023-12-24T18:40:31.430Z,99181.03
2023-12-24T18:42:57.878Z,99173.28
2023-12-24T18:45:26.072Z,99182.75
2023-12-24T18:47:55.800Z,99181.22
2023-12-24T18:50:22.633Z,99173.50
2023-12-24T18:52:49.204Z,99187.03
2023-12-24T18:55:15.795Z,99174.41
2023-12-24T18:57:42.937Z,99203.78
2023-12-24T19:00:10.293Z,99157.91
2023-12-24T19:02:37.646Z,99190.69
2023-12-24T19:05:04.727Z,99193.72
2023-12-24T19:07:31.237Z,99180.56
2023-12-24T19:09:58.300Z,99177.88
2023-12-24T19:12:24.805Z,99182.41
2023-12-24T19:14:51.470Z,99181.59
2023-12-24T19:17:17.997Z,99185.13
2023-12-24T19:19:44.669Z,99181.69
2023-12-24T19:22:11.279Z,99185.03
2023-12-24T19:24:37.721Z,99186.97
2023-12-24T19:27:04.938Z,99186.53
2023-12-24T19:29:31.541Z,99167.47
2023-12-24T19:31:58.080Z,99177.00
2023-12-24T19:34:24.558Z,99180.16
2023-12-24T19:36:51.108Z,99172.75
2023-12-24T19:39:17.610Z,99179.41
2023-12-24T19:41:44.143Z,99180.69
2023-12-24T19:44:11.006Z,99167.13
2023-12-24T19:46:37.485Z,99190.03
2023-12-24T19:49:04.201Z,99172.31
2023-12-24T19:51:30.771Z,99145.22
2023-12-24T19:53:57.424Z,99188.41
2023-12-24T19:56:24.192Z,99208.00
2023-12-24T19:58:52.455Z,99181.41
2023-12-24T20:01:25.801Z,99211.94
2023-12-24T20:03:57.324Z,99188.47
2023-12-24T20:06:23.995Z,99204.31
2023-12-24T20:08:50.692Z,99194.41
2023-12-24T20:11:17.472Z,99208.03
2023-12-24T20:13:43.955Z,99217.69
2023-12-24T20:16:10.485Z,99181.59
2023-12-24T20:18:37.114Z,99214.44
2023-12-24T20:21:03.827Z,99216.09
2023-12-24T20:23:30.341Z,99221.16
2023-12-24T20:25:56.865Z,99224.72
2023-12-24T20:28:23.343Z,99182.66
2023-12-24T20:30:49.942Z,99223.06
2023-12-24T20:33:18.427Z,99219.91
2023-12-24T20:35:45.141Z,99221.13
2023-12-24T20:38:11.656Z,99240.72
2023-12-24T20:40:38.132Z,99246.28
2023-12-24T20:43:05.044Z,99236.81
2023-12-24T20:45:31.481Z,99239.88
2023-12-24T20:47:58.437Z,99230.13
2023-12-24T20:50:24.976Z,99219.44
2023-12-24T20:52:51.725Z,99242.69
2023-12-24T20:55:18.418Z,99238.94
2023-12-24T20:57:44.876Z,99232.13
2023-12-24T21:00:12.273Z,99222.38
2023-12-24T21:02:38.886Z,99230.88
2023-12-24T21:05:05.981Z,99225.25
2023-12-24T21:07:33.355Z,99243.41
2023-12-24T21:09:59.823Z,99247.09
2023-12-24T21:12:26.294Z,99248.69
2023-12-24T21:14:52.878Z,99251.56
2023-12-24T21:17:19.637Z,99265.97
2023-12-24T21:19:46.315Z,99240.56
2023-12-24T21:22:12.895Z,99245.81
2023-12-24T21:24:39.411Z,99281.44
2023-12-24T21:27:05.910Z,99271.75
2023-12-24T21:29:32.572Z,99252.75
2023-12-24T21:32:00.713Z,99278.41
2023-12-24T21:34:27.285Z,99289.78
2023-12-24T21:36:54.612Z,99289.97
2023-12-24T21:39:24.945Z,99301.38
2023-12-24T21:41:51.675Z,99284.91
2023-12-24T21:44:18.375Z,99292.75
2023-12-24T21:46:45.175Z,99308.06
2023-12-24T21:49:12.184Z,99314.44
2023-12-24T21:51:45.722Z,99323.34
2023-12-24T21:54:12.316Z,99304.03
2023-12-24T21:56:39.171Z,99323.94
2023-12-24T21:59:05.800Z,99336.44
2023-12-24T22:01:33.317Z,99331.84
2023-12-24T22:04:00.257Z,99338.72
2023-12-24T22:06:26.876Z,99341.59
2023-12-24T22:08:53.471Z,99347.72
2023-12-24T22:11:22.234Z,99346.88
2023-12-24T22:13:49.175Z,99344.81
2023-12-24T22:16:17.397Z,99353.59
2023-12-24T22:18:44.903Z,99357.91
2023-12-24T22:21:11.963Z,99356.91
2023-12-24T22:23:38.505Z,99372.19
2023-12-24T22:26:05.609Z,99364.81
2023-12-24T22:28:33.107Z,99382.53
2023-12-24T22:30:59.635Z,99369.97
2023-12-24T22:33:26.385Z,99371.88
2023-12-24T22:35:53.137Z,99342.63
2023-12-24T22:38:19.698Z,99376.28
2023-12-24T22:40:46.189Z,99332.78
2023-12-24T22:43:12.689Z,99378.34
2023-12-24T22:45:50.624Z,99353.00
2023-12-24T22:48:18.945Z,99385.56
2023-12-24T22:50:45.652Z,99369.84
2023-12-24T22:53:14.508Z,99376.50
2023-12-24T22:55:41.138Z,99398.78
2023-12-24T22:58:07.628Z,99399.59
2023-12-24T23:00:34.264Z,99386.41
2023-12-24T23:03:00.927Z,99390.09
2023-12-24T23:05:27.600Z,99362.91
2023-12-24T23:07:54.875Z,99363.47
2023-12-24T23:10:21.452Z,99384.72
2023-12-24T23:12:48.516Z,99394.41
2023-12-24T23:15:15.137Z,99368.56
2023-12-24T23:17:47.579Z,99392.09
2023-12-24T23:20:14.322Z,99369.06
2023-12-24T23:22:41.050Z,99389.28
2023-12-24T23:25:07.913Z,99388.09
2023-12-24T23:27:34.389Z,99387.25
2023-12-24T23:30:00.982Z,99384.06
2023-12-24T23:32:27.618Z,99391.50
2023-12-24T23:34:54.225Z,99380.63
2023-12-24T23:37:20.728Z,99387.81
2023-12-24T23:39:47.330Z,99379.94
2023-12-24T23:42:13.798Z,99382.63
2023-12-24T23:44:40.247Z,99399.28
2023-12-24T23:47:07.544Z,99392.09
2023-12-24T23:49:34.146Z,99377.00
2023-12-24T23:52:00.612Z,99403.81
2023-12-24T23:54:27.092Z,99400.91
2023-12-24T23:56:53.675Z,99410.81
2023-12-24T23:59:22.943Z,99421.34
